Time;durP1;ratioP1;P1;durP2;ratioP2;P2;SDS_P1;SDS_P2;PMS_P1;PMS_P2;Temp;Humidity;BMP_temperature;BMP_pressure;BME280_temperature;BME280_humidity;BME280_pressure;Samples;Min_cycle;Max_cycle;Signal;HPM_P1;HPM_P2
2022/04/11 02:03:49;;;;;;;10.85;5.80;;;;;;;-0.42;91.41;96823.81;2076527;28;20205;-66
2022/04/11 02:04:50;;;;;;;10.63;5.43;;;;;;;-0.33;91.10;96825.31;2070495;28;20199;-67
2022/04/11 02:05:53;;;;;;;11.20;5.65;;;;;;;-0.29;90.45;96822.66;2078479;28;20228;-66
2022/04/11 02:06:54;;;;;;;12.63;5.55;;;;;;;-0.65;90.63;96791.72;2078368;28;20544;-67
2022/04/11 02:07:57;;;;;;;15.27;5.43;;;;;;;-0.42;90.95;96824.63;2084312;28;20196;-67
2022/04/11 02:08:58;;;;;;;12.80;5.20;;;;;;;-0.43;91.15;96824.69;2085165;28;20196;-67
2022/04/11 02:10:00;;;;;;;8.00;5.20;;;;;;;-0.37;91.31;96824.56;2082726;28;20196;-67
2022/04/11 02:11:01;;;;;;;7.97;5.30;;;;;;;-0.36;90.70;96818.50;2085614;28;20201;-67
2022/04/11 02:12:03;;;;;;;11.05;5.97;;;;;;;-0.36;90.70;96815.94;2083336;28;20197;-66
2022/04/11 02:13:06;;;;;;;8.40;5.20;;;;;;;-0.33;90.85;96815.00;2075591;28;20675;-66
2022/04/11 02:14:08;;;;;;;9.18;6.00;;;;;;;-0.32;90.55;96815.00;2075455;28;20224;-66
2022/04/11 02:15:11;;;;;;;11.15;5.22;;;;;;;-0.35;90.26;96811.63;2084006;28;20200;-67
2022/04/11 02:16:12;;;;;;;10.10;5.20;;;;;;;-0.28;90.45;96816.63;2086056;28;20203;-67
2022/04/11 02:17:14;;;;;;;8.30;5.75;;;;;;;-0.24;90.43;96814.81;2082605;28;20652;-66
2022/04/11 02:18:15;;;;;;;9.65;6.40;;;;;;;-0.30;90.87;96817.53;2085649;28;20204;-66
2022/04/11 02:19:17;;;;;;;9.18;5.45;;;;;;;-0.35;91.09;96806.47;2087751;28;20196;-66
2022/04/11 02:20:19;;;;;;;7.88;5.00;;;;;;;-0.27;90.96;96815.75;2084311;28;20228;-66
2022/04/11 02:21:20;;;;;;;9.68;6.22;;;;;;;-0.38;90.79;96793.69;2085052;28;20197;-66
2022/04/11 02:22:22;;;;;;;10.43;5.22;;;;;;;-0.47;90.99;96792.16;2084243;28;20196;-67
2022/04/11 02:23:23;;;;;;;10.10;5.50;;;;;;;-0.43;90.99;96804.09;2084147;28;20201;-67
2022/04/11 02:24:25;;;;;;;8.68;5.22;;;;;;;-0.34;91.17;96800.47;2079517;28;20205;-66
2022/04/11 02:25:31;;;;;;;10.23;6.07;;;;;;;-0.30;91.14;96808.09;2078046;28;20225;-66
2022/04/11 02:26:32;;;;;;;8.13;5.10;;;;;;;-0.50;91.80;96803.38;2085897;28;20223;-67
2022/04/11 02:27:34;;;;;;;10.30;5.57;;;;;;;-0.55;91.46;96778.63;2087393;28;20231;-66
2022/04/11 02:28:35;;;;;;;12.57;6.05;;;;;;;-0.34;91.26;96798.75;2086332;28;20196;-66
2022/04/11 02:29:37;;;;;;;10.07;6.53;;;;;;;-0.31;90.83;96787.53;2085020;28;20200;-67
2022/04/11 02:30:39;;;;;;;7.93;5.05;;;;;;;-0.30;90.78;96800.34;2083636;28;20318;-67
2022/04/11 02:31:41;;;;;;;11.98;5.80;;;;;;;-0.30;91.18;96794.38;2086935;28;20547;-67
2022/04/11 02:32:42;;;;;;;9.13;6.20;;;;;;;-0.31;91.34;96788.38;2087398;28;20192;-66
2022/04/11 02:33:44;;;;;;;15.43;5.32;;;;;;;-0.22;91.32;96795.03;2085037;28;20204;-66
2022/04/11 02:34:45;;;;;;;9.68;6.18;;;;;;;-0.16;91.05;96791.47;2085204;28;20194;-66
2022/04/11 02:35:47;;;;;;;9.50;5.30;;;;;;;-0.14;90.12;96797.44;2084914;28;20227;-66
2022/04/11 02:36:48;;;;;;;10.30;6.32;;;;;;;-0.25;89.71;96793.38;2077518;28;20201;-66
2022/04/11 02:37:50;;;;;;;16.50;5.75;;;;;;;-0.29;90.41;96796.91;2076974;28;20221;-67
2022/04/11 02:38:52;;;;;;;10.05;6.28;;;;;;;-0.20;90.50;96782.97;2078404;28;20201;-67
2022/04/11 02:39:53;;;;;;;10.93;5.63;;;;;;;-0.14;90.77;96789.72;2076048;28;20849;-66
2022/04/11 02:40:55;;;;;;;15.68;5.45;;;;;;;-0.09;91.03;96782.75;2075449;28;20236;-66
2022/04/11 02:41:56;;;;;;;9.93;4.90;;;;;;;-0.01;90.53;96775.69;2086175;28;20192;-67
2022/04/11 02:42:58;;;;;;;11.07;4.85;;;;;;;0.05;90.38;96770.38;2077509;28;20202;-66
2022/04/11 02:43:59;;;;;;;9.70;4.68;;;;;;;-0.01;90.13;96766.22;2077016;28;20618;-67
2022/04/11 02:45:02;;;;;;;11.10;4.93;;;;;;;0.09;89.75;96773.72;2085351;28;20216;-67
2022/04/11 02:46:03;;;;;;;8.80;4.95;;;;;;;0.13;89.77;96765.03;2083928;28;20189;-66
2022/04/11 02:47:05;;;;;;;15.32;5.10;;;;;;;0.13;89.82;96765.88;2088074;28;20196;-67
2022/04/11 02:48:07;;;;;;;6.05;4.00;;;;;;;0.20;89.23;96764.00;2084010;28;20207;-66
2022/04/11 02:49:09;;;;;;;8.40;5.10;;;;;;;0.16;89.42;96757.25;2084903;28;20215;-67
2022/04/11 02:50:10;;;;;;;11.05;4.75;;;;;;;0.16;88.29;96736.63;2084702;28;20212;-67
2022/04/11 02:51:12;;;;;;;6.05;4.13;;;;;;;0.43;87.64;96753.09;2083866;28;20201;-67
2022/04/11 02:52:14;;;;;;;6.47;4.15;;;;;;;0.27;87.22;96746.66;2084285;28;20192;-66
2022/04/11 02:53:16;;;;;;;8.15;4.90;;;;;;;0.32;88.09;96757.69;2077007;28;20198;-66
2022/04/11 02:54:17;;;;;;;9.18;4.78;;;;;;;0.33;88.67;96759.38;2076511;28;20204;-66
2022/04/11 02:55:19;;;;;;;11.40;5.25;;;;;;;0.38;88.89;96766.09;2083821;28;20235;-67
2022/04/11 02:56:20;;;;;;;12.27;5.47;;;;;;;0.39;88.67;96765.25;2079364;28;20197;-66
2022/04/11 02:57:22;;;;;;;7.40;4.78;;;;;;;0.25;88.82;96743.28;2080381;28;20200;-66
2022/04/11 02:58:24;;;;;;;7.43;4.40;;;;;;;0.05;88.27;96710.31;2085270;28;20624;-67
2022/04/11 02:59:25;;;;;;;8.65;4.20;;;;;;;0.31;88.89;96768.88;2086937;28;20201;-67
2022/04/11 03:00:27;;;;;;;9.13;5.13;;;;;;;0.23;89.16;96738.16;2076511;28;20225;-66
2022/04/11 03:01:28;;;;;;;10.38;5.38;;;;;;;0.18;89.32;96735.72;2074676;28;20261;-66
2022/04/11 03:02:30;;;;;;;9.48;4.85;;;;;;;0.35;89.49;96755.91;2077759;28;20656;-66
2022/04/11 03:03:31;;;;;;;5.72;4.10;;;;;;;0.34;89.58;96753.34;2075626;28;20942;-66
2022/04/11 03:04:33;;;;;;;9.32;4.13;;;;;;;0.28;89.70;96751.78;2084650;28;20730;-67
2022/04/11 03:05:35;;;;;;;11.45;5.13;;;;;;;0.31;89.94;96754.25;2083468;28;20220;-66
2022/04/11 03:06:36;;;;;;;7.78;5.40;;;;;;;0.34;89.54;96758.50;2085485;28;20201;-66
2022/04/11 03:07:38;;;;;;;9.15;4.40;;;;;;;0.28;89.65;96746.63;2085281;28;20197;-67
2022/04/11 03:08:39;;;;;;;6.32;4.60;;;;;;;0.30;89.68;96749.16;2082875;28;20209;-66
2022/04/11 03:09:41;;;;;;;8.63;5.00;;;;;;;0.30;89.54;96744.00;2084240;28;20204;-66
2022/04/11 03:10:42;;;;;;;8.57;4.47;;;;;;;-0.01;89.97;96701.84;2084155;28;20910;-66
2022/04/11 03:11:44;;;;;;;13.60;5.18;;;;;;;0.15;89.42;96720.31;2085305;28;20702;-66
2022/04/11 03:12:46;;;;;;;7.85;4.85;;;;;;;0.27;88.97;96733.78;2084960;28;20196;-67
2022/04/11 03:13:48;;;;;;;9.10;4.68;;;;;;;0.30;88.27;96726.81;2085361;28;20234;-66
2022/04/11 03:14:50;;;;;;;15.38;4.82;;;;;;;0.45;87.89;96738.47;2084966;28;20193;-66
2022/04/11 03:15:51;;;;;;;11.90;4.90;;;;;;;0.67;86.45;96743.03;2083627;28;20268;-66
2022/04/11 03:16:53;;;;;;;11.77;4.38;;;;;;;0.68;85.78;96745.56;2086222;28;20204;-67
2022/04/11 03:17:54;;;;;;;7.82;4.47;;;;;;;0.70;85.98;96741.19;2086134;28;20607;-66
2022/04/11 03:18:56;;;;;;;8.40;4.72;;;;;;;0.74;85.57;96740.22;2085943;28;20196;-67
2022/04/11 03:19:57;;;;;;;10.25;4.75;;;;;;;0.51;86.42;96732.28;2085479;28;20200;-66
2022/04/11 03:20:59;;;;;;;11.90;4.45;;;;;;;0.39;87.19;96724.00;2085597;28;20208;-66
2022/04/11 03:22:01;;;;;;;10.48;4.88;;;;;;;0.37;86.90;96715.47;2082632;28;20558;-67
2022/04/11 03:23:02;;;;;;;7.32;4.57;;;;;;;0.46;87.47;96723.84;2080102;28;20193;-67
2022/04/11 03:24:04;;;;;;;9.68;4.38;;;;;;;0.58;87.55;96741.53;2080335;28;20202;-66
2022/04/11 03:25:07;;;;;;;10.45;5.13;;;;;;;0.50;87.45;96730.59;2079444;28;20738;-66
2022/04/11 03:26:08;;;;;;;10.10;4.20;;;;;;;0.57;87.50;96738.13;2079665;28;20209;-66
2022/04/11 03:27:10;;;;;;;12.02;5.15;;;;;;;0.59;87.44;96732.94;2085207;28;20201;-66
2022/04/11 03:28:11;;;;;;;7.47;4.72;;;;;;;0.56;87.45;96727.84;2085584;28;20209;-67
2022/04/11 03:29:13;;;;;;;5.22;3.75;;;;;;;0.57;87.83;96726.97;2084548;28;20205;-66
2022/04/11 03:30:14;;;;;;;8.23;5.72;;;;;;;0.50;87.90;96728.03;2075512;28;20415;-67
2022/04/11 03:31:17;;;;;;;9.98;4.75;;;;;;;0.44;88.78;96730.75;2076501;28;20657;-66
2022/04/11 03:32:18;;;;;;;6.88;4.53;;;;;;;0.45;88.33;96735.88;2080125;28;20760;-65
2022/04/11 03:33:20;;;;;;;8.45;4.80;;;;;;;0.34;88.66;96727.59;2080272;28;20798;-66
2022/04/11 03:34:21;;;;;;;11.20;4.18;;;;;;;0.35;88.73;96732.72;2084241;28;20208;-66
2022/04/11 03:35:23;;;;;;;10.57;5.15;;;;;;;0.39;88.86;96729.16;2084713;28;20231;-66
2022/04/11 03:36:25;;;;;;;6.28;4.35;;;;;;;0.34;89.00;96725.00;2084777;28;20216;-65
2022/04/11 03:37:26;;;;;;;8.65;5.07;;;;;;;0.37;88.75;96730.06;2084888;28;20219;-66
2022/04/11 03:38:28;;;;;;;10.38;5.55;;;;;;;0.37;88.61;96724.91;2085604;28;20200;-65
2022/04/11 03:39:29;;;;;;;7.50;4.70;;;;;;;0.32;88.64;96731.94;2085852;28;20207;-66
2022/04/11 03:40:31;;;;;;;9.10;5.32;;;;;;;0.14;88.45;96721.22;2084785;28;20227;-66
2022/04/11 03:41:32;;;;;;;8.20;5.55;;;;;;;0.17;87.94;96733.16;2087066;28;20205;-65
2022/04/11 03:42:34;;;;;;;9.05;5.85;;;;;;;0.14;87.79;96731.53;2087478;28;20284;-66
2022/04/11 03:43:36;;;;;;;10.02;5.65;;;;;;;0.06;88.31;96730.88;2083416;28;20208;-66
2022/04/11 03:44:37;;;;;;;8.93;5.35;;;;;;;0.07;88.70;96732.53;2079543;28;20442;-65
2022/04/11 03:45:39;;;;;;;10.57;5.93;;;;;;;-0.06;89.30;96721.72;2079244;28;20290;-65
2022/04/11 03:46:40;;;;;;;11.45;6.05;;;;;;;-0.16;89.79;96715.09;2084979;28;20368;-66
2022/04/11 03:47:41;;;;;;;10.60;5.57;;;;;;;0.01;89.52;96727.56;2084937;28;20338;-65
2022/04/11 03:48:43;;;;;;;9.70;4.90;;;;;;;0.09;89.43;96729.94;2085230;28;20197;-66
2022/04/11 03:49:45;;;;;;;10.25;4.80;;;;;;;0.03;89.03;96714.66;2085509;28;20556;-66
2022/04/11 03:50:47;;;;;;;7.47;5.28;;;;;;;0.15;89.41;96740.09;2084500;28;20224;-66
2022/04/11 03:51:48;;;;;;;13.52;5.82;;;;;;;0.25;88.80;96746.69;2084268;28;20188;-66
2022/04/11 03:52:50;;;;;;;12.95;5.70;;;;;;;0.17;89.05;96743.47;2077072;28;20197;-65
2022/04/11 03:53:51;;;;;;;11.98;4.63;;;;;;;-0.03;89.25;96713.91;2074041;28;20208;-66
2022/04/11 03:54:53;;;;;;;10.38;4.90;;;;;;;0.19;88.93;96739.13;2084344;28;20199;-66
2022/04/11 03:55:54;;;;;;;10.13;6.10;;;;;;;0.06;88.97;96738.59;2084032;28;20228;-66
2022/04/11 03:56:56;;;;;;;10.75;5.85;;;;;;;-0.14;88.98;96720.19;2086188;28;20561;-66
2022/04/11 03:57:58;;;;;;;14.35;6.07;;;;;;;-0.22;89.52;96710.97;2085197;28;20208;-66
2022/04/11 03:58:59;;;;;;;10.00;6.40;;;;;;;-0.15;89.74;96718.53;2085469;28;20762;-66
2022/04/11 04:00:01;;;;;;;10.90;5.63;;;;;;;-0.11;89.33;96720.13;2084933;28;20200;-66
2022/04/11 04:01:02;;;;;;;9.93;5.75;;;;;;;-0.05;89.37;96713.09;2084207;28;20235;-65
2022/04/11 04:02:04;;;;;;;10.05;4.88;;;;;;;0.04;89.38;96722.34;2084897;28;20200;-66
2022/04/11 04:03:07;;;;;;;11.18;5.45;;;;;;;0.23;89.09;96722.69;2084763;28;20203;-66
2022/04/11 04:04:08;;;;;;;8.25;4.85;;;;;;;0.18;89.19;96715.09;2085113;28;20765;-66
2022/04/11 04:05:10;;;;;;;9.55;4.50;;;;;;;0.19;89.03;96723.66;2085180;28;20204;-65
2022/04/11 04:06:12;;;;;;;8.00;4.70;;;;;;;0.12;89.04;96709.28;2087882;28;20200;-66
2022/04/11 04:07:13;;;;;;;12.00;5.07;;;;;;;0.05;88.36;96687.97;2087411;28;20723;-65
2022/04/11 04:08:17;;;;;;;7.95;4.60;;;;;;;0.12;88.72;96710.09;2085767;28;20197;-65
2022/04/11 04:09:19;;;;;;;10.45;5.65;;;;;;;0.11;88.36;96716.13;2084949;28;20240;-65
2022/04/11 04:10:20;;;;;;;8.70;4.70;;;;;;;0.18;87.71;96712.53;2083548;28;20216;-67
2022/04/11 04:11:22;;;;;;;7.88;5.15;;;;;;;0.20;86.61;96699.59;2085213;28;20203;-65
2022/04/11 04:12:23;;;;;;;7.60;5.03;;;;;;;0.40;86.26;96717.13;2085736;28;20200;-66
2022/04/11 04:13:25;;;;;;;11.27;5.20;;;;;;;0.39;86.22;96712.81;2086545;28;20593;-65
2022/04/11 04:14:27;;;;;;;7.82;4.50;;;;;;;0.49;85.54;96710.84;2085299;28;20192;-65
2022/04/11 04:15:29;;;;;;;10.93;4.20;;;;;;;0.55;85.13;96706.41;2084342;28;20304;-65
2022/04/11 04:16:30;;;;;;;8.75;4.75;;;;;;;0.56;84.82;96695.19;2083638;28;20708;-65
2022/04/11 04:17:31;;;;;;;11.35;4.82;;;;;;;0.66;84.65;96700.94;2083227;28;20821;-66
2022/04/11 04:18:39;;;;;;;20.20;5.13;;;;;;;0.56;84.64;96697.75;2083741;28;20228;-65
2022/04/11 04:19:41;;;;;;;9.65;4.82;;;;;;;0.47;84.64;96687.72;2084976;28;20674;-65
2022/04/11 04:20:42;;;;;;;9.13;4.18;;;;;;;0.56;84.52;96690.03;2082530;28;20798;-65
2022/04/11 04:21:44;;;;;;;12.45;5.15;;;;;;;0.56;84.98;96702.09;2083930;28;20220;-65
2022/04/11 04:22:45;;;;;;;9.70;4.57;;;;;;;0.40;85.39;96683.63;2085126;28;20568;-65
2022/04/11 04:23:47;;;;;;;12.52;5.15;;;;;;;0.44;85.90;96700.69;2085619;28;20201;-66
2022/04/11 04:24:48;;;;;;;10.25;5.13;;;;;;;0.04;86.50;96688.00;2086427;28;20828;-65
2022/04/11 04:25:50;;;;;;;10.95;5.55;;;;;;;-0.03;87.16;96713.06;2085969;28;20220;-65
2022/04/11 04:26:51;;;;;;;11.95;5.38;;;;;;;-0.22;88.00;96689.50;2078945;28;20197;-65
2022/04/11 04:27:53;;;;;;;10.77;5.55;;;;;;;-0.30;88.60;96694.00;2079645;28;20219;-65
2022/04/11 04:28:54;;;;;;;12.57;5.82;;;;;;;-0.21;88.59;96712.63;2084442;28;20197;-65
2022/04/11 04:29:56;;;;;;;13.45;6.57;;;;;;;-0.29;88.63;96719.69;2081154;28;20205;-65
2022/04/11 04:30:57;;;;;;;16.90;6.97;;;;;;;-0.25;88.97;96720.47;2083239;28;20208;-65
2022/04/11 04:32:00;;;;;;;14.98;7.00;;;;;;;-0.38;88.96;96708.78;2084879;28;20207;-65
2022/04/11 04:33:02;;;;;;;8.65;6.32;;;;;;;-0.39;89.34;96720.81;2076824;28;20240;-65
2022/04/11 04:34:04;;;;;;;10.10;7.13;;;;;;;-0.44;89.11;96725.19;2076537;28;20200;-65
2022/04/11 04:35:06;;;;;;;8.50;5.90;;;;;;;-0.61;89.64;96733.28;2083215;28;20204;-65
2022/04/11 04:36:08;;;;;;;12.93;6.70;;;;;;;-0.85;90.77;96711.53;2083824;28;20805;-65
2022/04/11 04:37:09;;;;;;;13.82;6.85;;;;;;;-0.92;91.24;96705.69;2085569;28;20216;-65
2022/04/11 04:38:11;;;;;;;15.80;6.47;;;;;;;-0.88;91.58;96725.31;2085034;28;20208;-65
2022/04/11 04:39:12;;;;;;;12.00;7.07;;;;;;;-0.85;91.63;96726.97;2084115;28;20220;-65
2022/04/11 04:40:14;;;;;;;12.55;7.18;;;;;;;-0.93;91.62;96722.00;2083573;28;20197;-65
2022/04/11 04:41:15;;;;;;;12.48;8.05;;;;;;;-0.94;92.28;96727.16;2078474;28;20194;-65
2022/04/11 04:42:21;;;;;;;11.65;7.22;;;;;;;-1.04;92.50;96724.81;2079603;28;20271;-65
2022/04/11 04:43:22;;;;;;;11.32;7.60;;;;;;;-1.01;92.56;96729.84;2084558;28;20196;-65
2022/04/11 04:44:24;;;;;;;12.68;7.65;;;;;;;-0.95;92.51;96728.88;2085942;28;20580;-65
2022/04/11 04:45:25;;;;;;;12.90;7.80;;;;;;;-0.86;91.68;96728.69;2083920;28;20690;-65
2022/04/11 04:46:27;;;;;;;12.98;7.68;;;;;;;-1.01;92.49;96724.72;2075841;28;20194;-65
2022/04/11 04:47:28;;;;;;;15.50;8.00;;;;;;;-1.10;92.35;96708.63;2077116;28;20193;-65
2022/04/11 04:48:30;;;;;;;9.88;6.90;;;;;;;-1.05;92.13;96717.94;2079399;28;20205;-65
2022/04/11 04:49:31;;;;;;;12.40;6.75;;;;;;;-1.02;92.25;96727.31;2079663;28;20787;-64
2022/04/11 04:50:33;;;;;;;14.50;6.32;;;;;;;-1.19;92.40;96699.41;2083553;28;20223;-67
2022/04/11 04:51:34;;;;;;;10.32;6.60;;;;;;;-1.12;92.30;96716.38;2085031;28;20197;-66
2022/04/11 04:52:38;;;;;;;12.35;7.47;;;;;;;-1.27;91.95;96707.28;2086410;28;20227;-66
2022/04/11 04:53:40;;;;;;;13.68;7.20;;;;;;;-1.15;92.22;96705.34;2085490;28;20201;-66
2022/04/11 04:54:41;;;;;;;11.40;7.45;;;;;;;-1.11;92.36;96702.66;2083664;28;20189;-66
2022/04/11 04:55:42;;;;;;;13.77;6.72;;;;;;;-0.88;92.10;96722.75;2083461;28;20227;-66
2022/04/11 04:56:45;;;;;;;13.20;6.43;;;;;;;-0.90;91.59;96721.94;2085414;28;20200;-66
2022/04/11 04:57:47;;;;;;;7.43;5.70;;;;;;;-0.97;91.06;96675.81;2076813;28;20287;-66
2022/04/11 04:58:49;;;;;;;12.10;6.88;;;;;;;-0.77;91.06;96714.78;2075552;28;20207;-66
2022/04/11 04:59:50;;;;;;;10.30;6.07;;;;;;;-0.73;90.91;96724.13;2084725;28;20201;-65
2022/04/11 05:00:52;;;;;;;10.70;5.82;;;;;;;-0.78;90.83;96707.09;2085253;28;20232;-66
2022/04/11 05:01:54;;;;;;;9.30;6.47;;;;;;;-0.70;89.86;96716.34;2084607;28;20211;-66
2022/04/11 05:02:56;;;;;;;11.27;6.22;;;;;;;-0.76;90.10;96708.78;2077315;28;20206;-66
2022/04/11 05:03:58;;;;;;;10.55;6.20;;;;;;;-0.67;90.02;96713.69;2075710;28;20229;-65
2022/04/11 05:05:06;;;;;;;12.23;5.35;;;;;;;-0.77;89.68;96696.78;2077685;28;20818;-65
2022/04/11 05:06:08;;;;;;;15.15;6.82;;;;;;;-0.67;89.82;96708.53;2080395;28;20219;-65
2022/04/11 05:07:09;;;;;;;9.65;5.60;;;;;;;-0.64;90.01;96721.34;2083903;28;20192;-65
2022/04/11 05:08:10;;;;;;;12.73;6.25;;;;;;;-0.69;89.90;96706.91;2076016;28;20200;-65
2022/04/11 05:09:12;;;;;;;11.80;5.75;;;;;;;-0.66;89.75;96705.09;2076952;28;20206;-65
2022/04/11 05:10:14;;;;;;;11.85;6.60;;;;;;;-0.55;90.19;96717.72;2085020;28;20200;-65
2022/04/11 05:11:15;;;;;;;10.50;5.72;;;;;;;-0.60;89.87;96704.13;2083339;28;20203;-65
2022/04/11 05:12:17;;;;;;;9.05;6.05;;;;;;;-0.57;89.88;96706.63;2085641;28;20678;-65
2022/04/11 05:13:18;;;;;;;13.55;5.75;;;;;;;-0.44;90.05;96725.19;2085870;28;20227;-65
2022/04/11 05:14:20;;;;;;;16.40;6.38;;;;;;;-0.49;89.90;96706.44;2083933;28;20246;-66
2022/04/11 05:15:21;;;;;;;11.45;6.07;;;;;;;-0.49;89.71;96702.16;2083852;28;20216;-65
2022/04/11 05:16:23;;;;;;;12.48;4.82;;;;;;;-0.25;88.84;96713.59;2083737;28;20193;-65
2022/04/11 05:17:25;;;;;;;12.98;6.63;;;;;;;-0.21;88.36;96717.78;2084439;28;20197;-65
2022/04/11 05:18:26;;;;;;;10.57;4.95;;;;;;;-0.26;88.39;96708.47;2084456;28;20216;-65
2022/04/11 05:19:27;;;;;;;13.52;6.65;;;;;;;-0.23;88.33;96711.81;2086115;28;20602;-65
2022/04/11 05:20:29;;;;;;;10.73;5.63;;;;;;;-0.33;88.57;96718.09;2080055;28;20877;-65
2022/04/11 05:21:31;;;;;;;11.48;6.10;;;;;;;-0.41;88.93;96707.13;2075847;28;20205;-65
2022/04/11 05:22:37;;;;;;;9.07;5.15;;;;;;;-0.46;89.65;96714.94;2078868;28;20226;-66
2022/04/11 05:23:38;;;;;;;14.23;5.75;;;;;;;-0.52;89.38;96711.66;2084224;28;20197;-65
2022/04/11 05:24:40;;;;;;;10.43;6.25;;;;;;;-0.46;89.70;96706.38;2083770;28;20205;-65
2022/04/11 05:25:41;;;;;;;10.63;4.90;;;;;;;-0.40;89.65;96709.63;2082246;28;20216;-65
2022/04/11 05:26:43;;;;;;;16.92;6.63;;;;;;;-0.33;89.25;96712.94;2084321;28;20299;-65
2022/04/11 05:27:44;;;;;;;12.90;6.85;;;;;;;-0.24;89.07;96701.56;2083958;28;20193;-65
2022/04/11 05:28:46;;;;;;;10.25;5.55;;;;;;;-0.23;88.88;96698.13;2084287;28;20204;-65
2022/04/11 05:29:48;;;;;;;18.90;6.13;;;;;;;-0.05;88.57;96705.38;2084364;28;20188;-66
2022/04/11 05:30:49;;;;;;;12.57;5.55;;;;;;;0.07;87.66;96711.94;2076288;28;20379;-65
2022/04/11 05:31:51;;;;;;;9.63;5.25;;;;;;;0.24;87.19;96702.97;2085328;28;20709;-65
2022/04/11 05:32:53;;;;;;;7.97;5.03;;;;;;;0.46;85.87;96709.22;2084894;28;20235;-64
2022/04/11 05:33:55;;;;;;;10.48;5.60;;;;;;;0.39;85.33;96682.78;2084771;28;20196;-66
2022/04/11 05:34:56;;;;;;;9.93;5.03;;;;;;;0.55;84.85;96687.53;2084387;28;20200;-66
2022/04/11 05:35:58;;;;;;;17.70;5.13;;;;;;;0.70;84.93;96696.53;2084151;28;20196;-66
2022/04/11 05:37:00;;;;;;;15.63;5.60;;;;;;;0.77;84.04;96698.91;2083142;28;20290;-66
2022/04/11 05:38:01;;;;;;;11.23;5.82;;;;;;;0.79;83.99;96702.28;2085573;28;20572;-67
2022/04/11 05:39:03;;;;;;;9.05;5.65;;;;;;;0.74;84.04;96680.09;2082501;28;20222;-67
2022/04/11 05:40:05;;;;;;;16.42;6.03;;;;;;;0.87;83.94;96690.91;2083620;28;20597;-67
2022/04/11 05:41:07;;;;;;;10.52;4.65;;;;;;;0.72;84.41;96705.06;2082090;28;20196;-67
2022/04/11 05:42:09;;;;;;;15.57;5.28;;;;;;;0.67;83.47;96673.44;2085865;28;20572;-67
2022/04/11 05:43:13;;;;;;;14.13;6.05;;;;;;;0.97;83.72;96703.47;2081519;28;20220;-67
2022/04/11 05:44:14;;;;;;;8.60;5.45;;;;;;;0.92;83.74;96710.53;2082382;28;20659;-67
2022/04/11 05:45:15;;;;;;;8.02;5.15;;;;;;;0.77;84.07;96695.50;2083488;28;20229;-67
2022/04/11 05:46:17;;;;;;;8.57;5.13;;;;;;;0.86;83.57;96708.09;2084745;28;20237;-67
2022/04/11 05:47:18;;;;;;;12.40;5.43;;;;;;;1.03;82.93;96697.31;2085806;28;20759;-67
2022/04/11 05:48:20;;;;;;;10.40;5.45;;;;;;;0.88;83.54;96700.31;2081994;28;20193;-66
2022/04/11 05:49:22;;;;;;;10.48;5.30;;;;;;;1.06;83.18;96696.34;2082860;28;20197;-66
2022/04/11 05:50:24;;;;;;;11.30;5.53;;;;;;;1.20;82.49;96699.41;2073812;28;20311;-66
2022/04/11 05:51:27;;;;;;;6.95;4.32;;;;;;;1.15;82.54;96703.84;2074413;28;20209;-66
2022/04/11 05:52:29;;;;;;;9.23;4.95;;;;;;;1.23;82.67;96703.63;2083378;28;20193;-66
2022/04/11 05:53:30;;;;;;;9.02;5.53;;;;;;;1.22;81.94;96694.19;2083941;28;20197;-66
2022/04/11 05:54:35;;;;;;;7.70;5.05;;;;;;;1.57;81.19;96701.69;2076586;28;20233;-66
2022/04/11 05:55:37;;;;;;;8.55;5.63;;;;;;;1.54;81.79;96700.94;2077130;28;20231;-66
2022/04/11 05:56:38;;;;;;;10.98;5.60;;;;;;;1.50;81.46;96714.84;2084584;28;20192;-65
2022/04/11 05:57:40;;;;;;;10.80;5.55;;;;;;;1.41;81.34;96709.94;2085698;28;20196;-66
2022/04/11 05:58:41;;;;;;;11.70;5.68;;;;;;;1.52;81.32;96713.06;2083678;28;20203;-66
2022/04/11 05:59:43;;;;;;;13.20;5.15;;;;;;;1.65;80.94;96714.38;2073393;28;20193;-66
2022/04/11 06:00:45;;;;;;;10.80;6.00;;;;;;;1.70;80.38;96712.47;2077464;28;20224;-66
2022/04/11 06:01:46;;;;;;;9.00;4.95;;;;;;;1.80;80.43;96718.19;2085681;28;20219;-66
2022/04/11 06:02:48;;;;;;;10.95;5.50;;;;;;;1.91;80.48;96705.75;2084331;28;20196;-66
2022/04/11 06:03:49;;;;;;;16.50;5.30;;;;;;;1.93;80.10;96711.72;2084201;28;20601;-65
2022/04/11 06:04:51;;;;;;;9.35;5.72;;;;;;;1.86;80.38;96711.97;2084385;28;20196;-66
2022/04/11 06:05:52;;;;;;;9.90;6.10;;;;;;;1.73;80.94;96709.78;2084676;28;20227;-65
2022/04/11 06:06:55;;;;;;;18.85;6.35;;;;;;;1.69;80.82;96712.53;2078862;28;20216;-65
2022/04/11 06:07:56;;;;;;;10.80;5.45;;;;;;;1.87;80.94;96722.25;2078190;28;20204;-63
2022/04/11 06:08:58;;;;;;;13.23;5.68;;;;;;;2.04;79.92;96708.81;2082328;28;20206;-62
2022/04/11 06:09:59;;;;;;;10.30;4.53;;;;;;;2.21;78.15;96715.13;2082944;28;20216;-62
2022/04/11 06:11:01;;;;;;;9.57;5.35;;;;;;;2.31;77.68;96709.63;2084954;28;20181;-62
2022/04/11 06:12:03;;;;;;;8.95;5.85;;;;;;;2.38;77.43;96705.06;2083649;28;20198;-62
2022/04/11 06:13:04;;;;;;;8.13;5.25;;;;;;;2.50;77.39;96714.97;2084361;28;20197;-63
2022/04/11 06:14:06;;;;;;;18.08;5.50;;;;;;;2.67;76.60;96716.16;2084204;28;20189;-62
2022/04/11 06:15:08;;;;;;;11.27;5.50;;;;;;;2.49;75.27;96715.91;2082646;28;20236;-61
2022/04/11 06:16:09;;;;;;;9.73;5.50;;;;;;;2.66;75.49;96714.44;2086060;28;20217;-64
2022/04/11 06:17:11;;;;;;;9.10;5.00;;;;;;;2.13;75.25;96602.53;2083277;28;20228;-64
2022/04/11 06:18:12;;;;;;;11.50;5.32;;;;;;;2.88;74.63;96701.59;2084167;28;20696;-63
2022/04/11 06:19:15;;;;;;;9.45;5.60;;;;;;;2.96;74.82;96712.53;2084324;28;20197;-63
2022/04/11 06:20:17;;;;;;;7.65;4.63;;;;;;;2.66;74.98;96704.09;2084166;28;20220;-64
2022/04/11 06:21:19;;;;;;;14.77;4.93;;;;;;;2.63;75.40;96718.00;2075704;28;20198;-63
2022/04/11 06:22:21;;;;;;;10.65;5.40;;;;;;;2.72;74.54;96715.06;2074783;28;20202;-63
2022/04/11 06:23:23;;;;;;;9.10;4.82;;;;;;;2.80;74.24;96707.03;2083373;28;20200;-63
2022/04/11 06:24:24;;;;;;;9.75;4.90;;;;;;;2.90;74.16;96711.00;2083934;28;20197;-63
2022/04/11 06:25:25;;;;;;;9.55;4.93;;;;;;;2.86;74.52;96711.13;2082729;28;20225;-63
2022/04/11 06:26:27;;;;;;;13.07;5.00;;;;;;;2.82;73.92;96712.16;2083115;28;20226;-63
2022/04/11 06:27:29;;;;;;;8.93;4.90;;;;;;;3.08;72.69;96706.03;2083833;28;20193;-63
2022/04/11 06:28:30;;;;;;;10.80;4.60;;;;;;;3.15;72.68;96717.84;2078327;28;20201;-63
2022/04/11 06:29:31;;;;;;;10.38;4.57;;;;;;;3.21;72.50;96699.47;2078744;28;20194;-63
2022/04/11 06:30:33;;;;;;;6.90;4.28;;;;;;;3.04;72.61;96653.56;2082560;28;20894;-63
2022/04/11 06:31:34;;;;;;;9.55;5.70;;;;;;;3.39;72.78;96710.03;2081314;28;20193;-63
2022/04/11 06:32:36;;;;;;;11.70;5.22;;;;;;;3.17;72.55;96710.84;2081670;28;20189;-63
2022/04/11 06:33:38;;;;;;;6.97;3.97;;;;;;;3.52;71.26;96706.09;2081722;28;20277;-63
2022/04/11 06:34:40;;;;;;;10.98;4.50;;;;;;;3.55;71.10;96700.78;2082683;28;20209;-63
2022/04/11 06:35:41;;;;;;;8.45;4.32;;;;;;;3.36;71.23;96701.50;2083796;28;20223;-63
2022/04/11 06:36:42;;;;;;;5.95;4.18;;;;;;;3.52;70.60;96706.09;2075604;28;20852;-63
2022/04/11 06:37:44;;;;;;;7.88;4.20;;;;;;;3.56;70.59;96705.06;2074807;28;20211;-64
2022/04/11 06:38:45;;;;;;;11.00;5.18;;;;;;;3.61;70.65;96710.03;2086054;28;20558;-63
2022/04/11 06:39:47;;;;;;;6.45;4.22;;;;;;;3.48;70.80;96709.69;2082893;28;20197;-65
2022/04/11 06:40:49;;;;;;;8.55;4.75;;;;;;;3.50;71.16;96706.13;2083952;28;20717;-63
2022/04/11 06:41:51;;;;;;;8.23;4.50;;;;;;;3.84;70.03;96701.38;2083366;28;20593;-63
2022/04/11 06:42:53;;;;;;;9.02;4.20;;;;;;;3.90;69.81;96701.13;2084226;28;20197;-63
2022/04/11 06:43:54;;;;;;;10.27;4.70;;;;;;;3.90;69.59;96699.38;2085316;28;20197;-63
2022/04/11 06:44:55;;;;;;;6.60;3.63;;;;;;;4.12;68.30;96703.69;2083569;28;20197;-63
2022/04/11 06:45:57;;;;;;;11.57;5.43;;;;;;;4.14;67.65;96702.72;2086107;28;20196;-63
2022/04/11 06:46:59;;;;;;;8.68;5.50;;;;;;;4.26;68.50;96696.19;2085473;28;20898;-63
2022/04/11 06:48:01;;;;;;;6.85;3.65;;;;;;;4.23;68.58;96700.63;2083034;28;20193;-63
2022/04/11 06:49:02;;;;;;;8.25;4.50;;;;;;;4.49;68.11;96697.81;2083123;28;20192;-62
2022/04/11 06:50:04;;;;;;;8.55;5.05;;;;;;;4.52;67.15;96702.00;2080646;28;20205;-62
2022/04/11 06:51:05;;;;;;;9.38;4.68;;;;;;;4.91;66.11;96696.81;2086763;28;20196;-63
2022/04/11 06:52:07;;;;;;;16.13;4.85;;;;;;;5.34;64.66;96704.41;2086954;28;20211;-63
2022/04/11 06:53:09;;;;;;;11.27;4.40;;;;;;;5.26;65.43;96709.13;2084188;28;20197;-63
2022/04/11 06:54:10;;;;;;;7.82;4.10;;;;;;;5.53;63.96;96697.47;2084380;28;20212;-63